Баландино

Карта отелей и гостиниц, располагающихся рядом с аэропортом Баландино :

Баландино
Челябинск
Челябинская область 55° 18' 20.7612" N, 61° 30' 12.5388" E
Код аэродрома ИКАО: 
USCC
Код аэродрома RU: 
УСЦЦ
Координаты: 
N55.30577° E061.50348°
Превышение над уровнем моря : 
234
Основная полоса: 
09/27
Курс магнитный: 
090,3/270,3
Длина основной ВПП: 
3204
Ширина основной ВПП: 
60
Покрытие основной ВПП: 
Твёрдое
Тип: 
Аэродром
Освещение ВПП: 
Постоянное
Класс аэродрома: 
Международный
Статус: 
Действующий
Принадлежность: 
ГА
Сайт: 
www.aeroport-74.ru
Страна: 
Россия
Регион: 
Челябинская область
Город: 
Челябинск
Дополнительная информация: 
Оператор: ОАО «Челябинское авиапредприятие». Нкр.=(400)м.
Погода: 

Авиационная погода в Челябинске

Регион: 
Погода METAR: 
USCC 141730Z 11003MPS 5000 FU FEW040CB 26/14 Q1017 R09/000060 NOSIG RMK QFE742
Время наблюдения: 
2020-07-14T17:30:00Z
Температура C: 
26.0
Точка росы: 
14.0
Направление ветра: 
110
Скорость ветра: 
6
Метеорологическая видимость: 
3.11
Явления погоды: 
FU
Условия полета: 
MVFR
Аэропорт подробнее: 

Найти трансфер

С помощью этой формы Вы можете найти трансфер из аэропорта Баландино в город, аэропорт или вокзал:

Карта места

Javascript is required to view this map.

Погода в аэропортах:

Авиационная погода в Ханты-Мансийске

Регион: 
Погода METAR: 
USHH 141730Z 14004MPS 9999 -RA NSC 20/13 Q1019 R06/010060 TEMPO 3000 -TSRA BKN010CB
Время наблюдения: 
2020-07-14T17:30:00Z
Температура C: 
20.0
Точка росы: 
13.0
Направление ветра: 
140
Скорость ветра: 
8
Метеорологическая видимость: 
6.21
Явления погоды: 
-RA
Условия полета: 
VFR
Аэропорт подробнее: 

Авиационная погода в Курске

Погода METAR: 
UUOK 141730Z 28004MPS 3100 -DZ BR OVC005 16/15 Q1000 R30/190055 NOSIG RMK QBB150 QFE731/0975
Время наблюдения: 
2020-07-14T17:30:00Z
Температура C: 
16.0
Точка росы: 
15.0
Направление ветра: 
280
Скорость ветра: 
8
Метеорологическая видимость: 
1.93
Явления погоды: 
-DZ BR
Условия полета: 
IFR
Аэропорт подробнее: 

Авиационная погода в Москва - Внуково

Регион: 
Погода METAR: 
UUWW 141730Z 02012MPS 8000 -SHRA SCT007 BKN020CB 16/15 Q1000 R01/290245 TEMPO 1000 TSRA BKN012CB
Время наблюдения: 
2020-07-14T17:30:00Z
Температура C: 
16.0
Точка росы: 
15.0
Направление ветра: 
20
Скорость ветра: 
23
Метеорологическая видимость: 
4.97
Явления погоды: 
-SHRA
Условия полета: 
MVFR
Аэропорт подробнее: 

Авиационная погода в Белгороде

Регион: 
Погода METAR: 
UUOB 141730Z 24006MPS 2100 R29/1600D -SHRA BR BKN004CB 15/15 Q1003 R29/290055 NOSIG
Время наблюдения: 
2020-07-14T17:30:00Z
Температура C: 
15.0
Точка росы: 
15.0
Направление ветра: 
240
Скорость ветра: 
12
Метеорологическая видимость: 
1.3
Явления погоды: 
-SHRA BR
Условия полета: 
LIFR
Аэропорт подробнее: